createdAt,value
2022-12-17T00:01:02.459Z,5.99
2022-12-17T00:02:17.554Z,6.20
2022-12-17T00:03:32.814Z,6.29
2022-12-17T00:04:48.306Z,6.32
2022-12-17T00:06:03.789Z,6.29
2022-12-17T00:07:18.970Z,6.17
2022-12-17T00:08:34.403Z,6.13
2022-12-17T00:09:50.510Z,6.16
2022-12-17T00:11:05.873Z,6.00
2022-12-17T00:12:21.028Z,6.19
2022-12-17T00:13:41.555Z,6.05
2022-12-17T00:14:56.705Z,6.21
2022-12-17T00:16:12.118Z,6.35
2022-12-17T00:17:27.609Z,6.39
2022-12-17T00:18:42.834Z,6.48
2022-12-17T00:19:57.784Z,6.42
2022-12-17T00:21:14.302Z,6.28
2022-12-17T00:22:29.468Z,6.20
2022-12-17T00:23:44.297Z,6.17
2022-12-17T00:24:59.159Z,5.43
2022-12-17T00:26:17.556Z,5.67
2022-12-17T00:27:32.782Z,5.48
2022-12-17T00:28:48.267Z,6.04
2022-12-17T00:30:03.351Z,6.08
2022-12-17T00:31:18.637Z,5.98
2022-12-17T00:32:33.333Z,5.95
2022-12-17T00:33:48.495Z,5.89
2022-12-17T00:35:03.910Z,5.90
2022-12-17T00:36:19.295Z,5.59
2022-12-17T00:37:34.559Z,5.92
2022-12-17T00:38:49.866Z,6.04
2022-12-17T00:40:05.206Z,6.52
2022-12-17T00:41:20.769Z,6.47
2022-12-17T00:42:35.744Z,6.75
2022-12-17T00:43:50.619Z,6.72
2022-12-17T00:45:06.754Z,6.89
2022-12-17T00:46:22.247Z,6.90
2022-12-17T00:47:37.709Z,7.01
2022-12-17T00:48:53.523Z,7.06
2022-12-17T00:50:08.703Z,7.29
2022-12-17T00:51:24.122Z,7.35
2022-12-17T00:53:58.157Z,7.06
2022-12-17T00:55:13.059Z,6.69
2022-12-17T00:56:28.581Z,6.74
2022-12-17T00:57:43.557Z,6.81
2022-12-17T00:58:58.724Z,6.72
2022-12-17T01:00:13.876Z,6.68
2022-12-17T01:01:40.092Z,6.40
2022-12-17T01:03:12.484Z,6.77
2022-12-17T01:04:28.115Z,6.43
2022-12-17T01:05:43.307Z,6.62
2022-12-17T01:06:58.284Z,6.62
2022-12-17T01:08:14.384Z,6.92
2022-12-17T01:09:29.791Z,6.92
2022-12-17T01:10:45.104Z,6.92
2022-12-17T01:12:00.548Z,7.12
2022-12-17T01:13:15.816Z,7.00
2022-12-17T01:14:30.931Z,6.80
2022-12-17T01:16:03.773Z,7.06
2022-12-17T01:17:19.132Z,6.87
2022-12-17T01:18:38.170Z,6.59
2022-12-17T01:19:53.528Z,6.67
2022-12-17T01:21:15.596Z,6.69
2022-12-17T01:22:30.854Z,6.89
2022-12-17T01:23:46.278Z,6.83
2022-12-17T01:25:01.523Z,6.58
2022-12-17T01:26:18.243Z,6.85
2022-12-17T01:27:33.766Z,6.56
2022-12-17T01:28:49.276Z,6.79
2022-12-17T01:30:04.635Z,6.73
2022-12-17T01:31:19.752Z,6.54
2022-12-17T01:32:35.357Z,6.46
2022-12-17T01:33:50.784Z,6.70
2022-12-17T01:35:06.062Z,6.45
2022-12-17T01:36:21.252Z,6.18
2022-12-17T01:37:36.535Z,6.76
2022-12-17T01:38:52.140Z,6.69
2022-12-17T01:40:07.067Z,6.44
2022-12-17T01:41:24.517Z,6.25
2022-12-17T01:42:39.675Z,6.39
2022-12-17T01:43:56.827Z,6.53
2022-12-17T01:45:13.074Z,6.57
2022-12-17T01:46:28.604Z,6.49
2022-12-17T01:47:45.968Z,6.22
2022-12-17T01:49:04.997Z,6.18
2022-12-17T01:50:20.495Z,6.55
2022-12-17T01:51:36.992Z,6.30
2022-12-17T01:52:52.847Z,5.74
2022-12-17T01:54:11.639Z,6.46
2022-12-17T01:55:27.045Z,6.45
2022-12-17T01:56:42.379Z,6.54
2022-12-17T01:57:58.088Z,6.53
2022-12-17T01:59:13.418Z,6.56
2022-12-17T02:00:32.166Z,6.75
2022-12-17T02:01:47.839Z,6.67
2022-12-17T02:03:03.771Z,6.99
2022-12-17T02:04:19.184Z,7.02
2022-12-17T02:05:34.715Z,6.85
2022-12-17T02:06:56.454Z,7.07
2022-12-17T02:08:50.985Z,7.15
2022-12-17T02:10:30.634Z,7.39
2022-12-17T02:12:18.168Z,8.06
2022-12-17T02:13:39.747Z,7.81
2022-12-17T02:15:00.894Z,7.83
2022-12-17T02:16:24.016Z,7.94
2022-12-17T02:17:43.967Z,7.93
2022-12-17T02:19:07.984Z,7.89
2022-12-17T02:20:32.259Z,7.86
2022-12-17T02:21:50.011Z,7.79
2022-12-17T02:23:14.185Z,7.81
2022-12-17T02:25:02.754Z,7.82
2022-12-17T02:26:51.985Z,7.14
2022-12-17T02:28:07.743Z,7.32
2022-12-17T02:29:25.625Z,7.36
2022-12-17T02:30:41.151Z,7.00
2022-12-17T02:31:59.761Z,6.98
2022-12-17T02:33:15.446Z,6.92
2022-12-17T02:34:30.610Z,7.03
2022-12-17T02:35:50.110Z,7.05
2022-12-17T02:37:05.018Z,7.05
2022-12-17T02:38:19.954Z,7.40
2022-12-17T02:39:35.185Z,7.17
2022-12-17T02:40:52.619Z,7.10
2022-12-17T02:42:15.343Z,7.22
2022-12-17T02:43:30.717Z,7.32
2022-12-17T02:44:47.323Z,7.62
2022-12-17T02:46:03.010Z,7.76
2022-12-17T02:47:21.594Z,7.85
2022-12-17T02:48:37.436Z,7.85
2022-12-17T02:49:52.953Z,7.55
2022-12-17T02:51:08.275Z,7.18
2022-12-17T02:52:23.796Z,7.07
2022-12-17T02:53:39.146Z,7.18
2022-12-17T02:54:54.068Z,6.86
2022-12-17T02:56:09.078Z,6.65
2022-12-17T02:57:24.515Z,6.67
2022-12-17T02:58:39.987Z,6.76
2022-12-17T02:59:54.866Z,6.66
2022-12-17T03:01:12.322Z,6.85
2022-12-17T03:02:27.780Z,7.13
2022-12-17T03:03:47.381Z,7.36
2022-12-17T03:05:21.407Z,7.65
2022-12-17T03:06:40.746Z,7.69
2022-12-17T03:07:55.903Z,7.64
2022-12-17T03:09:10.735Z,7.60
2022-12-17T03:10:26.197Z,7.76
2022-12-17T03:11:41.624Z,7.66
2022-12-17T03:12:56.429Z,8.09
2022-12-17T03:14:11.857Z,7.80
2022-12-17T03:15:27.444Z,7.78
2022-12-17T03:16:42.997Z,7.82
2022-12-17T03:17:58.653Z,7.73
2022-12-17T03:19:13.594Z,7.82
2022-12-17T03:20:28.877Z,8.03
2022-12-17T03:21:43.904Z,8.08
2022-12-17T03:22:59.485Z,8.22
2022-12-17T03:24:14.727Z,7.88
2022-12-17T03:25:29.977Z,8.30
2022-12-17T03:26:45.180Z,8.24
2022-12-17T03:28:00.785Z,8.19
2022-12-17T03:29:16.353Z,8.19
2022-12-17T03:30:35.734Z,7.75
2022-12-17T03:31:52.454Z,7.71
2022-12-17T03:33:07.765Z,7.79
2022-12-17T03:34:23.298Z,7.73
2022-12-17T03:35:38.201Z,7.68
2022-12-17T03:36:53.214Z,7.59
2022-12-17T03:38:08.605Z,7.86
2022-12-17T03:39:23.548Z,7.25
2022-12-17T03:40:38.779Z,7.59
2022-12-17T03:41:54.160Z,7.56
2022-12-17T03:43:09.228Z,7.62
2022-12-17T03:44:25.418Z,7.50
2022-12-17T03:45:40.830Z,7.24
2022-12-17T03:46:56.084Z,7.58
2022-12-17T03:48:21.703Z,7.54
2022-12-17T03:49:37.325Z,7.72
2022-12-17T03:50:52.840Z,7.47
2022-12-17T03:52:08.254Z,7.74
2022-12-17T03:53:24.365Z,7.97
2022-12-17T03:54:39.823Z,7.80
2022-12-17T03:55:55.305Z,7.54
2022-12-17T03:57:15.812Z,7.50
2022-12-17T03:58:31.277Z,7.34
2022-12-17T03:59:46.296Z,7.37
2022-12-17T04:01:01.790Z,7.28
2022-12-17T04:02:17.484Z,7.38
2022-12-17T04:03:32.944Z,7.29
2022-12-17T04:04:48.239Z,7.18
2022-12-17T04:06:03.964Z,7.39
2022-12-17T04:07:19.266Z,7.26
2022-12-17T04:08:34.897Z,7.17
2022-12-17T04:09:50.245Z,7.43
2022-12-17T04:11:05.312Z,7.65
2022-12-17T04:12:20.476Z,7.53
2022-12-17T04:13:40.448Z,7.33
2022-12-17T04:14:56.308Z,7.73
2022-12-17T04:16:11.328Z,7.64
2022-12-17T04:17:26.594Z,7.75
2022-12-17T04:18:41.674Z,7.67
2022-12-17T04:19:56.657Z,7.25
2022-12-17T04:21:11.864Z,7.86
2022-12-17T04:22:27.213Z,7.99
2022-12-17T04:23:42.778Z,7.16
2022-12-17T04:24:58.085Z,7.37
2022-12-17T04:26:12.897Z,7.00
2022-12-17T04:27:28.315Z,7.06
2022-12-17T04:28:43.858Z,7.27
2022-12-17T04:29:59.283Z,7.66
2022-12-17T04:31:14.900Z,7.97
2022-12-17T04:32:34.896Z,8.20
2022-12-17T04:34:04.103Z,8.12
2022-12-17T04:35:18.983Z,8.11
2022-12-17T04:36:35.544Z,8.27
2022-12-17T04:37:50.988Z,9.09
2022-12-17T04:39:06.436Z,9.10
2022-12-17T04:40:22.397Z,8.97
2022-12-17T04:41:37.605Z,8.85
2022-12-17T04:42:53.009Z,8.74
2022-12-17T04:44:08.030Z,8.93
2022-12-17T04:45:23.500Z,8.72
2022-12-17T04:46:38.495Z,9.37
2022-12-17T04:47:53.563Z,9.84
2022-12-17T04:49:09.043Z,9.44
2022-12-17T04:50:24.784Z,9.11
2022-12-17T04:51:40.304Z,9.09
2022-12-17T04:52:55.847Z,9.06
2022-12-17T04:54:11.176Z,8.80
2022-12-17T04:55:26.717Z,8.61
2022-12-17T04:56:42.261Z,8.30
2022-12-17T04:57:57.823Z,8.35
2022-12-17T04:59:12.845Z,8.57
2022-12-17T05:00:28.733Z,8.64
2022-12-17T05:01:44.303Z,8.61
2022-12-17T05:02:59.728Z,7.81
2022-12-17T05:04:15.048Z,7.58
2022-12-17T05:05:30.111Z,7.67
2022-12-17T05:06:49.835Z,7.62
2022-12-17T05:08:04.878Z,7.60
2022-12-17T05:09:19.860Z,7.63
2022-12-17T05:10:35.205Z,7.96
2022-12-17T05:11:50.789Z,8.04
2022-12-17T05:13:05.981Z,8.49
2022-12-17T05:14:21.394Z,8.33
2022-12-17T05:15:36.817Z,8.32
2022-12-17T05:16:52.366Z,8.15
2022-12-17T05:18:07.844Z,8.42
2022-12-17T05:19:22.851Z,8.68
2022-12-17T05:20:38.325Z,8.35
2022-12-17T05:21:53.738Z,8.18
2022-12-17T05:23:09.014Z,8.02
2022-12-17T05:24:24.441Z,8.08
2022-12-17T05:25:40.333Z,8.05
2022-12-17T05:26:55.888Z,7.63
2022-12-17T05:28:12.599Z,7.88
2022-12-17T05:29:27.893Z,7.85
2022-12-17T05:30:43.247Z,8.35
2022-12-17T05:31:58.197Z,8.49
2022-12-17T05:33:20.831Z,8.60
2022-12-17T05:34:35.803Z,8.71
2022-12-17T05:35:51.254Z,8.25
2022-12-17T05:37:06.282Z,8.40
2022-12-17T05:38:29.436Z,8.33
2022-12-17T05:39:45.016Z,8.43
2022-12-17T05:41:00.345Z,8.09
2022-12-17T05:42:15.330Z,7.99
2022-12-17T05:43:31.737Z,7.88
2022-12-17T05:44:46.669Z,7.73
2022-12-17T05:46:03.096Z,7.82
2022-12-17T05:47:18.381Z,7.54
2022-12-17T05:48:33.464Z,8.34
2022-12-17T05:49:48.947Z,8.35
2022-12-17T05:51:09.305Z,8.44
2022-12-17T05:52:25.267Z,8.44
2022-12-17T05:53:40.812Z,8.11
2022-12-17T05:54:55.923Z,8.61
2022-12-17T05:56:12.305Z,8.43
2022-12-17T05:57:27.543Z,8.77
2022-12-17T05:58:42.577Z,8.75
2022-12-17T05:59:57.893Z,8.82
2022-12-17T06:01:22.514Z,8.81
2022-12-17T06:02:37.863Z,8.86
2022-12-17T06:03:53.608Z,8.66
2022-12-17T06:05:08.527Z,8.17
2022-12-17T06:06:23.766Z,8.43
2022-12-17T06:07:39.266Z,8.48
2022-12-17T06:08:54.427Z,8.34
2022-12-17T06:10:09.615Z,8.10
2022-12-17T06:11:41.807Z,8.34
2022-12-17T06:12:57.007Z,8.51
2022-12-17T06:14:12.209Z,8.46
2022-12-17T06:15:27.708Z,8.83
2022-12-17T06:16:42.878Z,9.04
2022-12-17T06:17:58.119Z,8.96
2022-12-17T06:19:13.140Z,8.98
2022-12-17T06:20:28.895Z,9.13
2022-12-17T06:21:43.928Z,9.35
2022-12-17T06:22:59.432Z,9.59
2022-12-17T06:24:14.883Z,9.83
2022-12-17T06:25:30.222Z,9.85
2022-12-17T06:26:45.223Z,9.77
2022-12-17T06:28:11.034Z,9.40
2022-12-17T06:29:26.332Z,9.34
2022-12-17T06:30:41.343Z,9.58
2022-12-17T06:31:56.335Z,9.61
2022-12-17T06:33:11.686Z,9.94
2022-12-17T06:34:26.923Z,9.85
2022-12-17T06:35:41.856Z,9.73
2022-12-17T06:36:56.833Z,9.95
2022-12-17T06:38:23.778Z,10.02
2022-12-17T06:39:39.152Z,9.84
2022-12-17T06:40:54.446Z,9.81
2022-12-17T06:42:09.276Z,9.90
2022-12-17T06:43:25.512Z,10.06
2022-12-17T06:44:40.374Z,10.17
2022-12-17T06:45:55.355Z,10.44
2022-12-17T06:47:10.682Z,10.55
2022-12-17T06:48:27.432Z,10.76
2022-12-17T06:49:42.873Z,10.99
2022-12-17T06:50:58.009Z,11.03
2022-12-17T06:52:12.898Z,11.21
2022-12-17T06:53:29.157Z,11.24
2022-12-17T06:54:44.419Z,11.60
2022-12-17T06:55:59.436Z,11.60
2022-12-17T06:57:14.612Z,11.53
2022-12-17T06:58:29.542Z,11.50
2022-12-17T06:59:44.654Z,11.43
2022-12-17T07:01:00.213Z,11.33
2022-12-17T07:02:15.240Z,11.43
2022-12-17T07:03:30.775Z,11.08
2022-12-17T07:04:45.829Z,11.19
2022-12-17T07:06:01.563Z,10.79
2022-12-17T07:07:17.046Z,11.08
2022-12-17T07:08:32.526Z,10.71
2022-12-17T07:09:47.872Z,10.85
2022-12-17T07:11:03.036Z,10.73
2022-12-17T07:12:17.964Z,10.47
2022-12-17T07:13:32.985Z,10.29
2022-12-17T07:14:48.287Z,10.15
2022-12-17T07:16:03.303Z,9.84
2022-12-17T07:17:18.193Z,9.73
2022-12-17T07:18:33.696Z,9.62
2022-12-17T07:19:48.830Z,9.03
2022-12-17T07:21:04.297Z,9.30
2022-12-17T07:22:19.629Z,9.26
2022-12-17T07:23:35.141Z,9.26
2022-12-17T07:24:50.445Z,9.41
2022-12-17T07:26:05.390Z,9.51
2022-12-17T07:27:20.324Z,9.32
2022-12-17T07:28:35.320Z,9.02
2022-12-17T07:29:50.392Z,8.79
2022-12-17T07:31:05.678Z,9.53
2022-12-17T07:32:21.136Z,9.37
2022-12-17T07:33:36.795Z,9.31
2022-12-17T07:34:52.204Z,9.21
2022-12-17T07:36:07.144Z,9.13
2022-12-17T07:37:22.459Z,9.05
2022-12-17T07:38:37.337Z,9.09
2022-12-17T07:39:52.407Z,9.27
2022-12-17T07:41:08.015Z,9.05
2022-12-17T07:42:23.490Z,9.19
2022-12-17T07:43:39.330Z,9.52
2022-12-17T07:44:55.136Z,9.78
2022-12-17T07:46:10.753Z,9.72
2022-12-17T07:47:25.838Z,9.94
2022-12-17T07:48:41.150Z,9.96
2022-12-17T07:49:56.397Z,9.52
2022-12-17T07:51:11.906Z,9.72
2022-12-17T07:52:26.913Z,9.93
2022-12-17T07:53:41.693Z,10.06
2022-12-17T07:54:56.847Z,10.14
2022-12-17T07:56:11.654Z,10.17
2022-12-17T07:57:26.981Z,10.30
2022-12-17T07:58:41.895Z,10.35
2022-12-17T07:59:57.017Z,10.42
2022-12-17T08:01:12.780Z,10.52
2022-12-17T08:02:29.462Z,10.35
2022-12-17T08:03:44.930Z,10.25
2022-12-17T08:05:00.228Z,10.30
2022-12-17T08:06:18.054Z,10.17
2022-12-17T08:07:33.290Z,10.09
2022-12-17T08:08:48.421Z,10.19
2022-12-17T08:10:03.251Z,10.35
2022-12-17T08:11:18.336Z,10.44
2022-12-17T08:12:34.463Z,10.42
2022-12-17T08:13:49.420Z,10.27
2022-12-17T08:15:04.499Z,10.49
2022-12-17T08:16:19.336Z,10.46
2022-12-17T08:17:34.786Z,10.57
2022-12-17T08:18:49.967Z,10.49
2022-12-17T08:20:05.007Z,10.53
2022-12-17T08:21:24.390Z,10.56
2022-12-17T08:22:39.653Z,10.52
2022-12-17T08:23:54.645Z,10.61
2022-12-17T08:25:09.621Z,10.64
2022-12-17T08:26:25.129Z,10.65
2022-12-17T08:27:40.679Z,10.49
2022-12-17T08:28:56.242Z,10.78
2022-12-17T08:30:11.935Z,10.73
2022-12-17T08:31:27.094Z,10.47
2022-12-17T08:32:42.453Z,10.61
2022-12-17T08:33:57.650Z,10.43
2022-12-17T08:35:12.840Z,10.71
2022-12-17T08:36:27.800Z,10.77
2022-12-17T08:37:42.983Z,10.83
2022-12-17T08:38:58.354Z,11.12
2022-12-17T08:40:13.316Z,11.01
2022-12-17T08:41:28.316Z,11.03
2022-12-17T08:42:44.003Z,11.04
2022-12-17T08:43:58.817Z,10.97
2022-12-17T08:45:13.963Z,10.71
2022-12-17T08:46:29.118Z,10.69
2022-12-17T08:47:44.228Z,10.65
2022-12-17T08:48:59.714Z,10.75
2022-12-17T08:50:15.053Z,10.81
2022-12-17T08:51:29.929Z,10.88
2022-12-17T08:52:45.063Z,11.05
2022-12-17T08:54:00.163Z,11.14
2022-12-17T08:55:15.116Z,11.11
2022-12-17T08:56:30.006Z,11.07
2022-12-17T08:57:44.918Z,11.13
2022-12-17T08:58:59.851Z,11.19
2022-12-17T09:00:14.767Z,11.17
2022-12-17T09:01:30.279Z,11.18
2022-12-17T09:02:45.606Z,11.11
2022-12-17T09:04:01.072Z,11.18
2022-12-17T09:05:15.835Z,10.82
2022-12-17T09:06:37.356Z,11.02
2022-12-17T09:07:54.021Z,11.02
2022-12-17T09:09:08.867Z,10.96
2022-12-17T09:10:24.348Z,10.84
2022-12-17T09:11:39.441Z,10.68
2022-12-17T09:12:55.356Z,10.72
2022-12-17T09:14:12.910Z,10.67
2022-12-17T09:15:28.123Z,10.57
2022-12-17T09:16:43.584Z,10.62
2022-12-17T09:17:58.974Z,10.59
2022-12-17T09:19:14.048Z,10.53
2022-12-17T09:20:29.824Z,10.35
2022-12-17T09:21:49.943Z,10.65
2022-12-17T09:23:04.770Z,10.64
2022-12-17T09:24:19.866Z,10.62
2022-12-17T09:25:35.337Z,10.56
2022-12-17T09:26:50.666Z,10.58
2022-12-17T09:28:06.052Z,10.43
2022-12-17T09:29:21.853Z,10.42
2022-12-17T09:30:37.463Z,10.57
2022-12-17T09:31:53.138Z,10.34
2022-12-17T09:33:08.102Z,10.88
2022-12-17T09:34:23.591Z,10.69
2022-12-17T09:35:38.831Z,10.93
2022-12-17T09:36:54.394Z,10.73
2022-12-17T09:38:16.065Z,10.92
2022-12-17T09:39:31.264Z,11.01
2022-12-17T09:40:48.603Z,11.00
2022-12-17T09:42:10.396Z,10.94
2022-12-17T09:43:39.325Z,10.69
2022-12-17T09:45:26.813Z,10.53
2022-12-17T09:46:54.619Z,10.30
2022-12-17T09:48:26.898Z,9.96
2022-12-17T09:49:47.609Z,9.79
2022-12-17T09:51:05.061Z,9.69
2022-12-17T09:52:22.600Z,9.45
2022-12-17T09:53:42.668Z,9.42
2022-12-17T09:55:05.246Z,9.42
2022-12-17T09:56:20.726Z,9.33
2022-12-17T09:57:40.362Z,9.22
2022-12-17T09:58:58.657Z,9.12
2022-12-17T10:00:13.885Z,9.21
2022-12-17T10:01:41.193Z,8.98
2022-12-17T10:02:58.552Z,9.18
2022-12-17T10:04:14.096Z,8.95
2022-12-17T10:05:40.101Z,8.93
2022-12-17T10:06:55.240Z,8.96
2022-12-17T10:08:12.276Z,9.00
2022-12-17T10:09:36.292Z,9.17
2022-12-17T10:10:52.180Z,9.26
2022-12-17T10:12:07.551Z,9.13
2022-12-17T10:13:30.736Z,9.17
2022-12-17T10:14:46.264Z,9.19
2022-12-17T10:16:02.130Z,9.04
2022-12-17T10:17:17.488Z,9.22
2022-12-17T10:18:35.206Z,8.99
2022-12-17T10:19:54.814Z,8.98
2022-12-17T10:21:29.559Z,8.96
2022-12-17T10:22:45.047Z,8.88
2022-12-17T10:24:00.412Z,8.86
2022-12-17T10:25:15.970Z,8.66
2022-12-17T10:26:44.593Z,8.97
2022-12-17T10:28:00.339Z,8.95
2022-12-17T10:29:34.004Z,8.56
2022-12-17T10:30:49.872Z,9.00
2022-12-17T10:32:05.195Z,8.87
2022-12-17T10:33:25.286Z,8.80
2022-12-17T10:34:40.336Z,8.72
2022-12-17T10:35:56.401Z,8.67
2022-12-17T10:37:12.473Z,8.67
2022-12-17T10:38:46.147Z,8.64
2022-12-17T10:40:01.896Z,8.41
2022-12-17T10:41:17.272Z,8.31
2022-12-17T10:42:58.828Z,8.53
2022-12-17T10:44:13.984Z,8.43
2022-12-17T10:45:44.483Z,8.48
2022-12-17T10:46:59.463Z,8.39
2022-12-17T10:48:15.022Z,8.37
2022-12-17T10:49:42.140Z,8.18
2022-12-17T10:51:00.353Z,8.50
2022-12-17T10:52:48.652Z,8.50
2022-12-17T10:54:08.474Z,8.08
2022-12-17T10:55:24.954Z,8.47
2022-12-17T10:56:45.288Z,8.39
2022-12-17T10:58:01.639Z,8.52
2022-12-17T10:59:17.618Z,8.67
2022-12-17T11:00:49.691Z,8.88
2022-12-17T11:02:05.676Z,8.90
2022-12-17T11:03:22.877Z,8.78
2022-12-17T11:04:55.871Z,8.58
2022-12-17T11:06:13.547Z,8.78
2022-12-17T11:07:34.758Z,8.88
2022-12-17T11:08:50.777Z,8.80
2022-12-17T11:10:10.356Z,8.92
2022-12-17T11:11:31.130Z,8.95
2022-12-17T11:13:00.767Z,9.10
2022-12-17T11:14:19.730Z,9.05
2022-12-17T11:16:18.005Z,9.09
2022-12-17T11:17:37.425Z,8.87
2022-12-17T11:18:58.661Z,8.84
2022-12-17T11:20:19.504Z,8.58
2022-12-17T11:21:40.513Z,8.75
2022-12-17T11:23:15.211Z,8.73
2022-12-17T11:24:40.062Z,8.78
2022-12-17T11:26:06.903Z,8.93
2022-12-17T11:27:26.153Z,8.94
2022-12-17T11:28:47.069Z,8.91
2022-12-17T11:30:04.354Z,8.94
2022-12-17T11:31:31.836Z,9.05
2022-12-17T11:33:19.738Z,8.94
2022-12-17T11:34:55.808Z,8.87
2022-12-17T11:36:32.461Z,8.76
2022-12-17T11:38:04.900Z,8.72
2022-12-17T11:39:34.829Z,8.84
2022-12-17T11:40:52.826Z,8.88
2022-12-17T11:42:11.173Z,8.87
2022-12-17T11:43:46.887Z,8.61
2022-12-17T11:45:24.435Z,8.91
2022-12-17T11:47:11.502Z,8.81
2022-12-17T11:48:35.973Z,8.78
2022-12-17T11:50:18.332Z,8.87
2022-12-17T11:52:23.253Z,8.99
2022-12-17T11:53:41.352Z,9.12
2022-12-17T11:54:59.415Z,9.11
2022-12-17T11:56:55.608Z,9.09
2022-12-17T11:58:23.338Z,9.19
2022-12-17T11:59:52.471Z,9.24
2022-12-17T12:01:24.982Z,8.99
2022-12-17T12:03:25.376Z,9.25
2022-12-17T12:05:05.435Z,9.18
2022-12-17T12:06:29.360Z,9.27
2022-12-17T12:07:49.339Z,9.37
2022-12-17T12:09:31.574Z,9.40
2022-12-17T12:11:16.239Z,9.54
2022-12-17T12:12:40.239Z,9.52
2022-12-17T12:14:24.489Z,9.48
2022-12-17T12:16:13.849Z,9.60
2022-12-17T12:17:45.797Z,9.51
2022-12-17T12:19:13.210Z,9.71
2022-12-17T12:21:04.492Z,9.62
2022-12-17T12:22:31.545Z,9.64
2022-12-17T12:24:25.555Z,9.65
2022-12-17T12:25:50.607Z,9.64
2022-12-17T12:27:31.878Z,9.68
2022-12-17T12:28:53.942Z,9.74
2022-12-17T12:30:28.088Z,9.77
2022-12-17T12:31:48.589Z,9.84
2022-12-17T12:33:10.161Z,9.97
2022-12-17T12:34:32.718Z,9.85
2022-12-17T12:35:48.881Z,9.88
2022-12-17T12:37:05.362Z,9.82
2022-12-17T12:38:20.915Z,9.97
2022-12-17T12:39:41.325Z,9.84
2022-12-17T12:41:08.814Z,9.90
2022-12-17T12:42:39.684Z,9.77
2022-12-17T12:43:59.501Z,9.80
2022-12-17T12:45:31.792Z,9.98
2022-12-17T12:47:11.679Z,9.94
2022-12-17T12:48:47.203Z,10.01
2022-12-17T12:50:22.847Z,9.95
2022-12-17T12:51:46.337Z,9.77
2022-12-17T12:53:04.344Z,9.98
2022-12-17T12:54:21.180Z,9.86
2022-12-17T12:55:36.429Z,10.08
2022-12-17T12:56:54.305Z,10.25
2022-12-17T12:58:23.892Z,10.21
2022-12-17T12:59:49.196Z,10.21
2022-12-17T13:01:04.212Z,10.24
2022-12-17T13:02:19.906Z,10.14
2022-12-17T13:04:07.250Z,10.10
2022-12-17T13:05:33.760Z,10.05
2022-12-17T13:06:54.160Z,10.02
2022-12-17T13:08:10.263Z,10.11
2022-12-17T13:09:15.921Z,10.14
2022-12-17T13:10:28.614Z,10.16
2022-12-17T13:11:36.057Z,10.07
2022-12-17T13:12:45.796Z,10.01
2022-12-17T13:13:56.161Z,10.00
2022-12-17T13:14:58.546Z,9.93
2022-12-17T13:16:41.026Z,9.89
2022-12-17T13:18:27.552Z,9.95
2022-12-17T13:19:37.873Z,9.87
2022-12-17T13:20:35.244Z,9.84
2022-12-17T13:21:32.176Z,9.93
2022-12-17T13:22:36.136Z,9.87
2022-12-17T13:23:38.035Z,9.91
2022-12-17T13:24:34.684Z,9.78
2022-12-17T13:25:31.803Z,9.99
2022-12-17T13:26:44.022Z,10.07
2022-12-17T13:27:41.965Z,9.81
2022-12-17T13:28:38.875Z,9.86
2022-12-17T13:29:37.908Z,9.93
2022-12-17T13:30:36.801Z,9.84
2022-12-17T13:32:01.102Z,9.78
2022-12-17T13:33:19.609Z,9.98
2022-12-17T13:34:26.070Z,10.07
2022-12-17T13:35:37.668Z,9.98
2022-12-17T13:36:58.417Z,10.04
2022-12-17T13:38:07.523Z,10.01
2022-12-17T13:39:31.536Z,9.94
2022-12-17T13:40:33.760Z,9.91
2022-12-17T13:41:33.779Z,9.70
2022-12-17T13:42:32.892Z,10.06
2022-12-17T13:43:34.311Z,9.67
2022-12-17T13:44:40.223Z,9.72
2022-12-17T13:45:38.859Z,9.73
2022-12-17T13:46:46.977Z,9.77
2022-12-17T13:47:44.117Z,9.72
2022-12-17T13:48:41.875Z,9.96
2022-12-17T13:49:38.531Z,9.73
2022-12-17T13:50:36.457Z,9.62
2022-12-17T13:51:35.435Z,9.72
2022-12-17T13:52:33.738Z,9.72
2022-12-17T13:53:34.171Z,9.53
2022-12-17T13:54:31.082Z,9.47
2022-12-17T13:55:29.303Z,9.53
2022-12-17T13:56:29.632Z,9.56
2022-12-17T13:57:26.287Z,9.69
2022-12-17T13:58:33.393Z,9.83
2022-12-17T13:59:30.205Z,9.87
2022-12-17T14:00:30.403Z,9.82
2022-12-17T14:01:27.150Z,9.97
2022-12-17T14:02:25.654Z,9.81
2022-12-17T14:03:42.922Z,9.74
2022-12-17T14:04:40.887Z,9.64
2022-12-17T14:05:42.399Z,9.40
2022-12-17T14:06:39.147Z,9.22
2022-12-17T14:07:39.208Z,9.33
2022-12-17T14:08:36.736Z,9.48
2022-12-17T14:09:38.781Z,9.37
2022-12-17T14:10:35.617Z,9.48
2022-12-17T14:11:52.343Z,9.34
2022-12-17T14:12:50.063Z,9.57
2022-12-17T14:13:49.114Z,9.43
2022-12-17T14:14:48.488Z,9.33
2022-12-17T14:15:50.244Z,9.43
2022-12-17T14:16:50.782Z,9.45
2022-12-17T14:17:49.834Z,9.07
2022-12-17T14:18:53.876Z,9.04
2022-12-17T14:20:05.392Z,9.36
2022-12-17T14:21:02.590Z,9.10
2022-12-17T14:22:00.490Z,8.79
2022-12-17T14:23:03.334Z,8.80
2022-12-17T14:24:00.026Z,8.69
2022-12-17T14:24:56.797Z,8.58
2022-12-17T14:25:54.127Z,8.70
2022-12-17T14:26:53.685Z,8.68
2022-12-17T14:28:01.784Z,8.64
2022-12-17T14:28:58.455Z,8.59
2022-12-17T14:29:56.894Z,8.56
2022-12-17T14:31:32.137Z,8.56
2022-12-17T14:32:25.312Z,8.50
2022-12-17T14:33:30.827Z,8.48
2022-12-17T14:34:27.512Z,8.47
2022-12-17T14:35:25.643Z,8.59
2022-12-17T14:36:23.760Z,8.63
2022-12-17T14:37:23.584Z,8.72
2022-12-17T14:38:36.924Z,8.76
2022-12-17T14:39:34.887Z,8.77
2022-12-17T14:40:31.575Z,8.84
2022-12-17T14:41:47.509Z,8.87
2022-12-17T14:42:44.657Z,8.87
2022-12-17T14:43:41.222Z,8.89
2022-12-17T14:44:50.310Z,8.86
2022-12-17T14:46:12.533Z,8.69
2022-12-17T14:47:22.615Z,8.92
2022-12-17T14:48:19.250Z,8.86
2022-12-17T14:49:19.493Z,8.96
2022-12-17T14:50:16.092Z,8.95
2022-12-17T14:51:27.702Z,8.98
2022-12-17T14:52:48.832Z,9.05
2022-12-17T14:53:45.459Z,9.11
2022-12-17T14:54:46.893Z,9.07
2022-12-17T14:55:55.935Z,8.87
2022-12-17T14:56:54.732Z,8.76
2022-12-17T14:57:53.214Z,8.69
2022-12-17T14:58:49.847Z,8.67
2022-12-17T14:59:46.507Z,8.68
2022-12-17T15:00:47.509Z,8.66
2022-12-17T15:01:44.385Z,8.71
2022-12-17T15:02:43.245Z,8.86
2022-12-17T15:03:48.038Z,8.75
2022-12-17T15:04:44.879Z,9.13
2022-12-17T15:05:41.512Z,9.10
2022-12-17T15:06:38.134Z,8.99
2022-12-17T15:07:34.729Z,8.74
2022-12-17T15:08:42.728Z,8.91
2022-12-17T15:09:40.600Z,8.62
2022-12-17T15:10:37.162Z,8.37
2022-12-17T15:11:34.177Z,8.20
2022-12-17T15:12:30.800Z,8.38
2022-12-17T15:13:27.541Z,8.42
2022-12-17T15:14:24.133Z,8.82
2022-12-17T15:15:21.976Z,8.92
2022-12-17T15:16:18.707Z,8.86
2022-12-17T15:17:16.181Z,9.20
2022-12-17T15:18:12.799Z,9.19
2022-12-17T15:19:09.424Z,9.19
2022-12-17T15:20:06.486Z,9.20
2022-12-17T15:21:03.887Z,9.19
2022-12-17T15:22:00.508Z,9.16
2022-12-17T15:22:57.172Z,9.17
2022-12-17T15:23:54.389Z,8.94
2022-12-17T15:24:51.366Z,9.01
2022-12-17T15:25:50.186Z,9.21
2022-12-17T15:26:47.554Z,9.25
2022-12-17T15:27:45.132Z,9.24
2022-12-17T15:28:42.829Z,9.12
2022-12-17T15:29:39.447Z,9.18
2022-12-17T15:30:36.137Z,9.07
2022-12-17T15:31:35.648Z,9.11
2022-12-17T15:32:32.655Z,9.22
2022-12-17T15:33:29.359Z,9.13
2022-12-17T15:34:26.033Z,9.17
2022-12-17T15:35:22.874Z,8.57
2022-12-17T15:36:19.538Z,9.10
2022-12-17T15:37:21.101Z,8.66
2022-12-17T15:38:20.668Z,8.88
2022-12-17T15:39:17.256Z,8.81
2022-12-17T15:40:13.921Z,8.65
2022-12-17T15:41:29.206Z,8.64
2022-12-17T15:42:44.582Z,8.43
2022-12-17T15:43:41.167Z,8.84
2022-12-17T15:44:37.777Z,9.28
2022-12-17T15:45:34.392Z,9.08
2022-12-17T15:46:31.031Z,8.80
2022-12-17T15:47:27.626Z,9.23
2022-12-17T15:48:24.408Z,8.91
2022-12-17T15:49:21.324Z,9.09
2022-12-17T15:50:17.926Z,9.11
2022-12-17T15:51:19.366Z,9.11
2022-12-17T15:52:16.445Z,9.17
2022-12-17T15:53:13.295Z,8.68
2022-12-17T15:54:09.940Z,8.81
2022-12-17T15:55:06.885Z,8.98
2022-12-17T15:56:06.799Z,9.07
2022-12-17T15:57:03.536Z,8.87
2022-12-17T15:58:00.166Z,8.92
2022-12-17T15:58:58.189Z,8.88
2022-12-17T15:59:54.829Z,9.03
2022-12-17T16:00:51.460Z,8.69
2022-12-17T16:01:48.781Z,8.39
2022-12-17T16:02:45.689Z,8.41
2022-12-17T16:03:42.669Z,8.65
2022-12-17T16:04:39.424Z,8.62
2022-12-17T16:05:36.026Z,8.60
2022-12-17T16:06:33.589Z,8.46
2022-12-17T16:07:30.270Z,8.72
2022-12-17T16:08:26.833Z,8.68
2022-12-17T16:09:25.271Z,8.71
2022-12-17T16:10:21.872Z,8.84
2022-12-17T16:11:18.446Z,8.90
2022-12-17T16:12:15.109Z,8.94
2022-12-17T16:13:12.077Z,8.98
2022-12-17T16:14:08.966Z,9.06
2022-12-17T16:15:06.697Z,8.94
2022-12-17T16:16:04.423Z,8.94
2022-12-17T16:17:01.168Z,9.11
2022-12-17T16:17:57.818Z,9.06
2022-12-17T16:18:54.486Z,9.09
2022-12-17T16:19:51.081Z,9.01
2022-12-17T16:20:47.727Z,9.06
2022-12-17T16:21:46.982Z,9.08
2022-12-17T16:22:44.489Z,9.01
2022-12-17T16:23:41.408Z,8.99
2022-12-17T16:24:38.097Z,8.80
2022-12-17T16:25:36.731Z,9.06